createdAt,value
2018-12-16T00:00:43.963Z,10.30
2018-12-16T00:01:43.950Z,9.20
2018-12-16T00:02:43.938Z,6.70
2018-12-16T00:03:43.931Z,11.70
2018-12-16T00:04:49.646Z,4.70
2018-12-16T00:05:43.904Z,5.60
2018-12-16T00:06:43.892Z,5.90
2018-12-16T00:07:43.882Z,5.10
2018-12-16T00:08:43.873Z,6.80
2018-12-16T00:09:43.859Z,6.00
2018-12-16T00:10:43.847Z,6.50
2018-12-16T00:11:43.835Z,11.20
2018-12-16T00:12:43.824Z,6.90
2018-12-16T00:13:43.813Z,7.90
2018-12-16T00:14:43.805Z,6.60
2018-12-16T00:15:43.790Z,10.10
2018-12-16T00:16:43.777Z,6.50
2018-12-16T00:17:43.767Z,8.90
2018-12-16T00:18:43.907Z,10.30
2018-12-16T00:19:43.744Z,4.70
2018-12-16T00:20:43.733Z,7.10
2018-12-16T00:21:43.721Z,9.30
2018-12-16T00:22:43.709Z,6.40
2018-12-16T00:23:43.700Z,7.80
2018-12-16T00:24:43.686Z,10.20
2018-12-16T00:25:43.677Z,6.00
2018-12-16T00:26:43.665Z,8.50
2018-12-16T00:27:43.655Z,7.80
2018-12-16T00:28:43.644Z,7.30
2018-12-16T00:29:43.631Z,8.60
2018-12-16T00:30:43.620Z,7.30
2018-12-16T00:31:43.609Z,5.60
2018-12-16T00:32:43.597Z,8.60
2018-12-16T00:33:43.586Z,7.90
2018-12-16T00:34:43.573Z,5.50
2018-12-16T00:35:43.565Z,7.90
2018-12-16T00:36:43.550Z,6.00
2018-12-16T00:37:43.540Z,8.60
2018-12-16T00:38:43.528Z,5.90
2018-12-16T00:39:43.517Z,5.30
2018-12-16T00:40:43.506Z,7.20
2018-12-16T00:41:43.494Z,7.30
2018-12-16T00:42:43.484Z,6.50
2018-12-16T00:43:43.473Z,7.60
2018-12-16T00:44:43.463Z,7.30
2018-12-16T00:45:43.450Z,11.70
2018-12-16T00:46:43.438Z,5.30
2018-12-16T00:47:43.428Z,6.50
2018-12-16T00:48:43.414Z,6.10
2018-12-16T00:49:43.405Z,7.40
2018-12-16T00:50:43.394Z,7.70
2018-12-16T00:51:43.384Z,10.00
2018-12-16T00:52:43.372Z,6.80
2018-12-16T00:53:43.359Z,9.20
2018-12-16T00:54:43.350Z,9.50
2018-12-16T00:55:43.339Z,12.00
2018-12-16T00:56:43.328Z,6.10
2018-12-16T00:57:43.313Z,8.70
2018-12-16T00:58:43.304Z,6.30
2018-12-16T00:59:43.294Z,8.50
2018-12-16T01:00:43.282Z,8.60
2018-12-16T01:01:43.269Z,6.70
2018-12-16T01:02:43.259Z,5.70
2018-12-16T01:03:43.257Z,7.40
2018-12-16T01:04:43.235Z,9.10
2018-12-16T01:05:43.225Z,3.60
2018-12-16T01:06:43.216Z,5.80
2018-12-16T01:07:43.203Z,9.50
2018-12-16T01:08:43.190Z,10.30
2018-12-16T01:09:43.180Z,5.30
2018-12-16T01:10:43.169Z,11.00
2018-12-16T01:11:43.158Z,8.60
2018-12-16T01:12:43.145Z,12.00
2018-12-16T01:13:43.135Z,5.80
2018-12-16T01:14:43.125Z,10.10
2018-12-16T01:15:43.112Z,6.90
2018-12-16T01:16:43.100Z,6.00
2018-12-16T01:17:43.089Z,6.30
2018-12-16T01:18:43.079Z,7.10
2018-12-16T01:19:43.069Z,7.10
2018-12-16T01:20:43.061Z,5.80
2018-12-16T01:21:43.045Z,5.10
2018-12-16T01:22:43.557Z,7.20
2018-12-16T01:23:43.022Z,5.50
2018-12-16T01:24:43.011Z,7.30
2018-12-16T01:25:43.001Z,11.80
2018-12-16T01:26:42.989Z,9.90
2018-12-16T01:27:42.978Z,6.60
2018-12-16T01:28:42.966Z,7.80
2018-12-16T01:29:42.955Z,9.50
2018-12-16T01:30:42.946Z,7.40
2018-12-16T01:31:42.933Z,8.50
2018-12-16T01:32:42.925Z,5.80
2018-12-16T01:33:42.911Z,9.80
2018-12-16T01:34:42.901Z,6.40
2018-12-16T01:35:42.889Z,9.50
2018-12-16T01:36:42.876Z,7.90
2018-12-16T01:37:42.867Z,5.20
2018-12-16T01:38:42.855Z,9.10
2018-12-16T01:39:42.844Z,8.00
2018-12-16T01:40:42.833Z,6.50
2018-12-16T01:41:42.821Z,6.30
2018-12-16T01:42:42.812Z,7.40
2018-12-16T01:43:42.802Z,8.40
2018-12-16T01:44:42.788Z,7.80
2018-12-16T01:45:42.777Z,7.40
2018-12-16T01:46:42.765Z,4.40
2018-12-16T01:47:42.755Z,6.40
2018-12-16T01:48:42.744Z,9.30
2018-12-16T01:49:42.733Z,8.80
2018-12-16T01:50:42.721Z,8.30
2018-12-16T01:51:42.711Z,5.40
2018-12-16T01:52:42.699Z,6.10
2018-12-16T01:53:42.689Z,11.20
2018-12-16T01:54:42.677Z,4.60
2018-12-16T01:55:42.666Z,8.00
2018-12-16T01:56:42.654Z,5.00
2018-12-16T01:57:42.645Z,7.40
2018-12-16T01:58:42.633Z,8.10
2018-12-16T01:59:42.621Z,6.20
2018-12-16T02:00:42.611Z,8.70
2018-12-16T02:01:42.598Z,10.20
2018-12-16T02:02:42.589Z,9.10
2018-12-16T02:03:42.577Z,9.50
2018-12-16T02:04:42.566Z,6.40
2018-12-16T02:05:42.555Z,6.60
2018-12-16T02:06:42.544Z,11.00
2018-12-16T02:07:42.534Z,6.60
2018-12-16T02:08:42.526Z,6.50
2018-12-16T02:09:42.572Z,5.40
2018-12-16T02:10:42.502Z,6.30
2018-12-16T02:11:42.488Z,7.50
2018-12-16T02:12:42.479Z,9.50
2018-12-16T02:13:42.466Z,5.80
2018-12-16T02:14:42.456Z,7.90
2018-12-16T02:15:42.444Z,9.10
2018-12-16T02:16:42.433Z,8.00
2018-12-16T02:17:42.427Z,5.60
2018-12-16T02:18:42.414Z,5.80
2018-12-16T02:19:42.400Z,7.20
2018-12-16T02:20:42.390Z,7.70
2018-12-16T02:21:42.379Z,5.10
2018-12-16T02:22:42.366Z,5.50
2018-12-16T02:23:42.356Z,5.20
2018-12-16T02:24:42.345Z,7.30
2018-12-16T02:25:42.335Z,8.10
2018-12-16T02:26:42.323Z,5.80
2018-12-16T02:27:42.313Z,7.10
2018-12-16T02:28:42.301Z,7.10
2018-12-16T02:29:42.291Z,6.10
2018-12-16T02:30:42.278Z,4.10
2018-12-16T02:31:42.278Z,3.90
2018-12-16T02:32:42.259Z,5.60
2018-12-16T02:33:42.245Z,6.40
2018-12-16T02:34:42.234Z,5.60
2018-12-16T02:35:42.225Z,10.20
2018-12-16T02:36:42.218Z,4.80
2018-12-16T02:37:42.201Z,4.90
2018-12-16T02:38:42.191Z,7.70
2018-12-16T02:39:42.183Z,6.30
2018-12-16T02:40:42.169Z,7.10
2018-12-16T02:41:42.161Z,4.30
2018-12-16T02:42:42.147Z,9.40
2018-12-16T02:43:42.138Z,8.20
2018-12-16T02:44:42.126Z,5.50
2018-12-16T02:45:42.113Z,8.40
2018-12-16T02:46:42.103Z,5.80
2018-12-16T02:47:42.092Z,7.80
2018-12-16T02:48:42.083Z,5.40
2018-12-16T02:49:42.070Z,6.90
2018-12-16T02:50:42.063Z,8.70
2018-12-16T02:51:42.062Z,8.20
2018-12-16T02:52:42.038Z,6.90
2018-12-16T02:53:42.027Z,4.70
2018-12-16T02:54:42.017Z,9.70
2018-12-16T02:55:42.005Z,6.90
2018-12-16T02:56:41.995Z,8.50
2018-12-16T02:57:41.983Z,5.90
2018-12-16T02:58:41.975Z,6.30
2018-12-16T02:59:41.963Z,7.00
2018-12-16T03:00:41.952Z,7.40
2018-12-16T03:01:41.940Z,5.00
2018-12-16T03:02:41.934Z,8.40
2018-12-16T03:03:41.924Z,6.30
2018-12-16T03:04:41.907Z,4.90
2018-12-16T03:05:41.898Z,5.80
2018-12-16T03:06:41.888Z,6.50
2018-12-16T03:07:41.875Z,6.50
2018-12-16T03:08:41.864Z,8.90
2018-12-16T03:09:41.853Z,7.10
2018-12-16T03:10:41.845Z,9.30
2018-12-16T03:11:41.833Z,8.90
2018-12-16T03:12:41.820Z,7.10
2018-12-16T03:13:41.811Z,8.00
2018-12-16T03:14:41.801Z,4.80
2018-12-16T03:15:41.789Z,7.10
2018-12-16T03:16:41.778Z,6.10
2018-12-16T03:17:41.767Z,5.60
2018-12-16T03:18:41.757Z,6.00
2018-12-16T03:19:41.747Z,7.80
2018-12-16T03:20:42.932Z,5.50
2018-12-16T03:21:41.729Z,5.40
2018-12-16T03:22:41.713Z,4.10
2018-12-16T03:23:41.703Z,4.90
2018-12-16T03:24:41.709Z,6.10
2018-12-16T03:25:41.681Z,10.50
2018-12-16T03:26:41.672Z,6.40
2018-12-16T03:27:41.661Z,7.40
2018-12-16T03:28:41.649Z,8.70
2018-12-16T03:29:41.639Z,6.20
2018-12-16T03:30:41.639Z,7.60
2018-12-16T03:31:41.618Z,6.80
2018-12-16T03:32:41.606Z,5.40
2018-12-16T03:33:41.686Z,4.80
2018-12-16T03:34:41.585Z,3.90
2018-12-16T03:35:41.582Z,5.20
2018-12-16T03:36:41.563Z,9.60
2018-12-16T03:37:41.553Z,5.40
2018-12-16T03:38:41.542Z,8.90
2018-12-16T03:39:41.531Z,7.10
2018-12-16T03:40:41.523Z,5.90
2018-12-16T03:41:41.509Z,6.20
2018-12-16T03:42:41.507Z,7.20
2018-12-16T03:43:41.488Z,6.60
2018-12-16T03:44:41.480Z,8.40
2018-12-16T03:45:41.467Z,8.90
2018-12-16T03:46:41.457Z,7.80
2018-12-16T03:47:41.449Z,5.20
2018-12-16T03:48:41.434Z,6.90
2018-12-16T03:49:41.440Z,5.30
2018-12-16T03:50:41.421Z,5.50
2018-12-16T03:51:41.404Z,11.00
2018-12-16T03:52:41.393Z,5.20
2018-12-16T03:53:41.383Z,4.50
2018-12-16T03:54:41.374Z,5.50
2018-12-16T03:55:41.360Z,4.40
2018-12-16T03:56:41.365Z,4.80
2018-12-16T03:57:41.345Z,5.60
2018-12-16T03:58:41.329Z,7.10
2018-12-16T03:59:41.318Z,6.50
2018-12-16T04:00:41.307Z,6.30
2018-12-16T04:01:41.298Z,7.50
2018-12-16T04:02:41.286Z,9.90
2018-12-16T04:03:41.278Z,4.30
2018-12-16T04:04:41.267Z,5.10
2018-12-16T04:05:41.255Z,5.90
2018-12-16T04:06:43.165Z,7.40
2018-12-16T04:07:41.234Z,5.40
2018-12-16T04:08:41.222Z,10.80
2018-12-16T04:09:41.215Z,7.30
2018-12-16T04:10:41.201Z,6.20
2018-12-16T04:11:41.193Z,6.30
2018-12-16T04:12:41.181Z,6.60
2018-12-16T04:13:41.169Z,6.40
2018-12-16T04:14:41.405Z,6.70
2018-12-16T04:15:41.149Z,6.40
2018-12-16T04:16:41.139Z,7.10
2018-12-16T04:17:41.127Z,5.60
2018-12-16T04:18:41.117Z,6.50
2018-12-16T04:19:41.107Z,5.60
2018-12-16T04:20:41.095Z,8.40
2018-12-16T04:21:41.085Z,7.70
2018-12-16T04:22:41.075Z,10.20
2018-12-16T04:23:41.064Z,5.50
2018-12-16T04:24:41.056Z,9.50
2018-12-16T04:25:41.048Z,6.00
2018-12-16T04:26:41.031Z,11.30
2018-12-16T04:27:41.021Z,8.30
2018-12-16T04:28:41.012Z,4.70
2018-12-16T04:29:41.000Z,8.50
2018-12-16T04:30:40.991Z,7.70
2018-12-16T04:31:40.979Z,9.10
2018-12-16T04:32:40.967Z,6.30
2018-12-16T04:33:40.958Z,8.20
2018-12-16T04:34:40.951Z,8.20
2018-12-16T04:35:40.935Z,7.90
2018-12-16T04:36:40.927Z,7.80
2018-12-16T04:37:40.916Z,6.30
2018-12-16T04:38:40.904Z,7.10
2018-12-16T04:39:40.892Z,11.50
2018-12-16T04:40:40.883Z,7.00
2018-12-16T04:41:40.871Z,7.00
2018-12-16T04:42:40.861Z,6.70
2018-12-16T04:43:40.852Z,8.20
2018-12-16T04:44:40.837Z,5.40
2018-12-16T04:45:40.828Z,6.20
2018-12-16T04:46:40.819Z,8.00
2018-12-16T04:47:40.806Z,7.30
2018-12-16T04:48:40.795Z,6.70
2018-12-16T04:49:40.786Z,5.10
2018-12-16T04:50:40.774Z,7.80
2018-12-16T04:51:40.767Z,8.70
2018-12-16T04:52:40.753Z,7.40
2018-12-16T04:53:40.743Z,7.50
2018-12-16T04:54:40.734Z,9.60
2018-12-16T04:55:40.722Z,10.60
2018-12-16T04:56:40.708Z,7.40
2018-12-16T04:57:40.699Z,5.90
2018-12-16T04:58:40.689Z,11.90
2018-12-16T04:59:40.679Z,10.00
2018-12-16T05:00:40.666Z,6.00
2018-12-16T05:01:40.658Z,8.10
2018-12-16T05:02:40.646Z,5.60
2018-12-16T05:03:40.638Z,6.00
2018-12-16T05:04:40.624Z,6.50
2018-12-16T05:05:40.614Z,5.70
2018-12-16T05:06:40.602Z,6.20
2018-12-16T05:07:40.592Z,12.90
2018-12-16T05:08:40.581Z,5.70
2018-12-16T05:09:40.569Z,8.80
2018-12-16T05:10:40.560Z,7.50
2018-12-16T05:11:40.550Z,5.20
2018-12-16T05:12:40.540Z,5.70
2018-12-16T05:13:40.527Z,4.00
2018-12-16T05:14:40.517Z,7.00
2018-12-16T05:15:40.506Z,7.90
2018-12-16T05:16:40.496Z,9.30
2018-12-16T05:17:40.485Z,9.20
2018-12-16T05:18:40.475Z,6.10
2018-12-16T05:19:40.463Z,7.10
2018-12-16T05:20:40.452Z,9.00
2018-12-16T05:21:40.443Z,7.20
2018-12-16T05:22:40.430Z,5.70
2018-12-16T05:23:42.032Z,10.60
2018-12-16T05:24:40.409Z,5.60
2018-12-16T05:25:40.399Z,7.90
2018-12-16T05:26:40.388Z,11.30
2018-12-16T05:27:40.377Z,9.40
2018-12-16T05:28:40.366Z,11.00
2018-12-16T05:29:40.354Z,6.40
2018-12-16T05:30:40.344Z,7.00
2018-12-16T05:31:40.334Z,7.40
2018-12-16T05:32:40.324Z,9.10
2018-12-16T05:33:40.312Z,7.40
2018-12-16T05:34:40.302Z,8.00
2018-12-16T05:35:40.296Z,8.20
2018-12-16T05:36:40.280Z,8.90
2018-12-16T05:37:40.271Z,8.40
2018-12-16T05:38:40.257Z,7.10
2018-12-16T05:39:40.248Z,9.70
2018-12-16T05:40:40.236Z,10.90
2018-12-16T05:41:40.226Z,9.40
2018-12-16T05:42:40.216Z,7.30
2018-12-16T05:43:40.208Z,10.10
2018-12-16T05:44:40.193Z,8.70
2018-12-16T05:45:40.183Z,10.40
2018-12-16T05:46:40.174Z,13.90
2018-12-16T05:47:40.162Z,10.50
2018-12-16T05:48:40.149Z,8.50
2018-12-16T05:49:40.139Z,5.80
2018-12-16T05:50:40.129Z,8.30
2018-12-16T05:51:40.118Z,9.60
2018-12-16T05:52:40.107Z,11.40
2018-12-16T05:53:40.098Z,12.20
2018-12-16T05:54:40.088Z,7.90
2018-12-16T05:55:40.075Z,9.90
2018-12-16T05:56:40.064Z,9.30
2018-12-16T05:57:40.052Z,11.30
2018-12-16T05:58:40.043Z,8.90
2018-12-16T05:59:40.031Z,10.80
2018-12-16T06:00:40.021Z,7.70
2018-12-16T06:01:40.010Z,9.50
2018-12-16T06:02:39.999Z,13.30
2018-12-16T06:03:39.992Z,9.60
2018-12-16T06:04:39.977Z,6.50
2018-12-16T06:05:39.968Z,14.10
2018-12-16T06:06:39.957Z,11.30
2018-12-16T06:07:39.945Z,9.30
2018-12-16T06:08:39.934Z,7.50
2018-12-16T06:09:39.922Z,8.20
2018-12-16T06:10:39.912Z,9.20
2018-12-16T06:11:39.903Z,11.40
2018-12-16T06:12:39.891Z,10.60
2018-12-16T06:13:39.880Z,9.90
2018-12-16T06:14:39.869Z,11.10
2018-12-16T06:15:39.857Z,12.80
2018-12-16T06:16:39.848Z,13.60
2018-12-16T06:17:39.839Z,11.20
2018-12-16T06:18:39.825Z,11.90
2018-12-16T06:19:39.818Z,8.10
2018-12-16T06:20:39.804Z,7.80
2018-12-16T06:21:39.792Z,6.50
2018-12-16T06:22:39.781Z,10.70
2018-12-16T06:23:39.770Z,13.40
2018-12-16T06:24:39.760Z,7.90
2018-12-16T06:25:39.751Z,7.10
2018-12-16T06:26:41.069Z,8.70
2018-12-16T06:27:39.728Z,8.60
2018-12-16T06:28:39.715Z,11.90
2018-12-16T06:29:39.706Z,9.20
2018-12-16T06:30:39.700Z,8.40
2018-12-16T06:31:39.684Z,10.70
2018-12-16T06:32:39.672Z,8.30
2018-12-16T06:33:39.662Z,12.60
2018-12-16T06:34:39.652Z,10.90
2018-12-16T06:35:39.641Z,8.30
2018-12-16T06:36:39.630Z,11.50
2018-12-16T06:37:39.619Z,7.60
2018-12-16T06:38:39.608Z,9.30
2018-12-16T06:39:39.597Z,9.20
2018-12-16T06:40:39.587Z,12.80
2018-12-16T06:41:39.576Z,7.60
2018-12-16T06:42:39.565Z,9.70
2018-12-16T06:43:39.553Z,9.60
2018-12-16T06:44:39.544Z,10.30
2018-12-16T06:45:39.531Z,10.00
2018-12-16T06:46:39.521Z,8.80
2018-12-16T06:47:39.511Z,8.10
2018-12-16T06:48:39.499Z,11.40
2018-12-16T06:49:39.490Z,7.00
2018-12-16T06:50:39.479Z,7.10
2018-12-16T06:51:39.481Z,13.00
2018-12-16T06:52:39.457Z,8.40
2018-12-16T06:53:39.455Z,12.50
2018-12-16T06:54:39.435Z,9.90
2018-12-16T06:55:43.368Z,9.10
2018-12-16T06:56:39.412Z,9.70
2018-12-16T06:57:39.401Z,11.80
2018-12-16T06:58:39.391Z,14.90
2018-12-16T06:59:39.381Z,12.90
2018-12-16T07:00:39.370Z,10.70
2018-12-16T07:01:39.359Z,10.80
2018-12-16T07:02:39.348Z,10.00
2018-12-16T07:03:39.337Z,12.80
2018-12-16T07:04:39.327Z,8.00
2018-12-16T07:05:39.318Z,13.50
2018-12-16T07:06:39.306Z,11.50
2018-12-16T07:07:39.294Z,10.70
2018-12-16T07:08:39.284Z,6.60
2018-12-16T07:09:39.273Z,12.20
2018-12-16T07:10:39.265Z,9.10
2018-12-16T07:11:39.271Z,9.80
2018-12-16T07:12:39.241Z,7.50
2018-12-16T07:13:39.231Z,7.90
2018-12-16T07:14:39.220Z,11.90
2018-12-16T07:15:39.210Z,8.70
2018-12-16T07:16:40.619Z,10.20
2018-12-16T07:17:39.196Z,8.70
2018-12-16T07:18:39.184Z,10.70
2018-12-16T07:19:39.171Z,11.30
2018-12-16T07:20:39.164Z,12.30
2018-12-16T07:21:39.146Z,12.20
2018-12-16T07:22:39.138Z,11.90
2018-12-16T07:23:39.124Z,8.50
2018-12-16T07:24:39.135Z,14.20
2018-12-16T07:25:39.112Z,7.50
2018-12-16T07:26:39.091Z,11.50
2018-12-16T07:27:39.094Z,12.50
2018-12-16T07:28:39.071Z,11.20
2018-12-16T07:29:39.093Z,10.00
2018-12-16T07:30:39.052Z,12.80
2018-12-16T07:31:39.040Z,7.60
2018-12-16T07:32:39.028Z,11.40
2018-12-16T07:33:39.018Z,15.20
2018-12-16T07:34:39.008Z,9.10
2018-12-16T07:35:38.997Z,9.80
2018-12-16T07:36:38.987Z,8.80
2018-12-16T07:37:38.987Z,9.40
2018-12-16T07:38:38.967Z,7.50
2018-12-16T07:39:38.962Z,12.80
2018-12-16T07:40:38.945Z,8.80
2018-12-16T07:41:38.934Z,12.50
2018-12-16T07:42:38.948Z,9.10
2018-12-16T07:43:38.932Z,13.60
2018-12-16T07:44:38.909Z,12.00
2018-12-16T07:45:38.892Z,12.50
2018-12-16T07:46:38.887Z,13.90
2018-12-16T07:47:38.870Z,9.10
2018-12-16T07:48:38.894Z,9.30
2018-12-16T07:49:38.849Z,13.20
2018-12-16T07:50:38.841Z,9.40
2018-12-16T07:51:38.830Z,9.70
2018-12-16T07:52:38.818Z,7.20
2018-12-16T07:53:38.806Z,15.50
2018-12-16T07:54:38.817Z,12.30
2018-12-16T07:55:38.786Z,12.70
2018-12-16T07:56:38.774Z,18.00
2018-12-16T07:57:38.765Z,17.20
2018-12-16T07:58:38.754Z,13.60
2018-12-16T07:59:38.747Z,13.20
2018-12-16T08:00:38.765Z,15.00
2018-12-16T08:01:38.723Z,8.70
2018-12-16T08:02:38.712Z,13.40
2018-12-16T08:03:38.702Z,13.00
2018-12-16T08:04:38.737Z,10.70
2018-12-16T08:05:38.681Z,12.50
2018-12-16T08:06:38.670Z,11.60
2018-12-16T08:07:38.660Z,10.40
2018-12-16T08:08:38.650Z,10.80
2018-12-16T08:09:38.639Z,11.20
2018-12-16T08:10:38.628Z,10.30
2018-12-16T08:11:38.619Z,12.90
2018-12-16T08:12:38.612Z,13.70
2018-12-16T08:13:38.598Z,13.80
2018-12-16T08:14:38.588Z,13.40
2018-12-16T08:15:38.576Z,11.00
2018-12-16T08:16:38.566Z,10.00
2018-12-16T08:17:38.556Z,13.80
2018-12-16T08:18:38.544Z,11.50
2018-12-16T08:19:38.534Z,9.80
2018-12-16T08:20:38.524Z,11.50
2018-12-16T08:21:38.516Z,15.10
2018-12-16T08:22:38.509Z,9.40
2018-12-16T08:23:38.494Z,8.60
2018-12-16T08:24:38.481Z,14.50
2018-12-16T08:25:38.471Z,10.90
2018-12-16T08:26:38.462Z,15.40
2018-12-16T08:27:38.453Z,17.60
2018-12-16T08:28:38.444Z,13.00
2018-12-16T08:29:38.430Z,12.80
2018-12-16T08:30:38.419Z,11.40
2018-12-16T08:31:38.408Z,13.50
2018-12-16T08:32:38.396Z,10.60
2018-12-16T08:33:38.388Z,11.70
2018-12-16T08:34:38.378Z,12.10
2018-12-16T08:35:38.367Z,15.20
2018-12-16T08:36:38.356Z,10.70
2018-12-16T08:37:38.346Z,10.40
2018-12-16T08:38:38.336Z,11.40
2018-12-16T08:39:38.326Z,11.90
2018-12-16T08:40:38.363Z,11.70
2018-12-16T08:41:38.305Z,11.60
2018-12-16T08:42:38.298Z,10.50
2018-12-16T08:43:38.284Z,13.00
2018-12-16T08:44:38.273Z,15.60
2018-12-16T08:45:38.264Z,12.30
2018-12-16T08:46:38.253Z,11.50
2018-12-16T08:47:38.244Z,9.40
2018-12-16T08:48:38.233Z,14.50
2018-12-16T08:49:38.221Z,14.60
2018-12-16T08:50:38.211Z,10.90
2018-12-16T08:51:38.200Z,12.50
2018-12-16T08:52:38.191Z,12.10
2018-12-16T08:53:38.181Z,9.70
2018-12-16T08:54:38.171Z,13.90
2018-12-16T08:55:38.160Z,12.10
2018-12-16T08:56:38.149Z,10.60
2018-12-16T08:57:38.139Z,12.50
2018-12-16T08:58:38.131Z,13.90
2018-12-16T08:59:38.120Z,11.40
2018-12-16T09:00:38.107Z,11.20
2018-12-16T09:01:38.101Z,11.00
2018-12-16T09:02:38.087Z,16.60
2018-12-16T09:03:38.078Z,15.90
2018-12-16T09:04:38.067Z,13.00
2018-12-16T09:05:38.055Z,11.80
2018-12-16T09:06:38.046Z,15.90
2018-12-16T09:07:38.036Z,13.30
2018-12-16T09:08:38.024Z,15.40
2018-12-16T09:09:38.016Z,9.70
2018-12-16T09:10:38.005Z,12.70
2018-12-16T09:11:37.994Z,12.70
2018-12-16T09:12:37.982Z,10.30
2018-12-16T09:13:37.975Z,14.40
2018-12-16T09:14:37.964Z,16.70
2018-12-16T09:15:37.952Z,15.00
2018-12-16T09:16:37.942Z,10.40
2018-12-16T09:17:37.933Z,13.70
2018-12-16T09:18:37.921Z,12.20
2018-12-16T09:19:37.915Z,9.70
2018-12-16T09:20:37.901Z,12.40
2018-12-16T09:21:38.968Z,14.80
2018-12-16T09:22:37.881Z,14.20
2018-12-16T09:23:37.870Z,11.30
2018-12-16T09:24:37.867Z,18.90
2018-12-16T09:25:37.850Z,8.90
2018-12-16T09:26:37.840Z,14.80
2018-12-16T09:27:37.829Z,14.10
2018-12-16T09:28:37.817Z,13.10
2018-12-16T09:29:37.811Z,13.00
2018-12-16T09:30:37.798Z,10.20
2018-12-16T09:31:37.788Z,11.70
2018-12-16T09:32:37.778Z,10.80
2018-12-16T09:33:37.770Z,13.60
2018-12-16T09:34:37.757Z,15.50
2018-12-16T09:35:37.745Z,10.10
2018-12-16T09:36:37.736Z,15.00
2018-12-16T09:37:37.725Z,11.50
2018-12-16T09:38:37.715Z,12.90
2018-12-16T09:39:37.706Z,14.60
2018-12-16T09:40:37.693Z,12.60
2018-12-16T09:41:37.685Z,17.00
2018-12-16T09:42:37.675Z,12.50
2018-12-16T09:43:37.665Z,15.10
2018-12-16T09:44:37.653Z,15.70
2018-12-16T09:45:37.643Z,15.60
2018-12-16T09:46:37.633Z,10.60
2018-12-16T09:47:37.623Z,12.40
2018-12-16T09:48:37.612Z,13.90
2018-12-16T09:49:37.602Z,15.10
2018-12-16T09:50:37.592Z,13.10
2018-12-16T09:51:37.582Z,13.50
2018-12-16T09:52:37.574Z,11.00
2018-12-16T09:53:37.562Z,13.70
2018-12-16T09:54:43.992Z,16.90
2018-12-16T09:55:37.545Z,13.50
2018-12-16T09:56:37.532Z,17.30
2018-12-16T09:57:37.524Z,19.00
2018-12-16T09:58:37.513Z,13.90
2018-12-16T09:59:37.503Z,12.70
2018-12-16T10:00:37.492Z,12.70
2018-12-16T10:01:37.483Z,14.90
2018-12-16T10:02:37.473Z,16.20
2018-12-16T10:03:37.467Z,17.30
2018-12-16T10:04:37.453Z,15.00
2018-12-16T10:05:37.443Z,11.90
2018-12-16T10:06:37.433Z,13.00
2018-12-16T10:07:37.424Z,14.00
2018-12-16T10:08:37.414Z,15.60
2018-12-16T10:09:37.406Z,15.60
2018-12-16T10:10:37.394Z,14.20
2018-12-16T10:11:37.385Z,15.00
2018-12-16T10:12:37.373Z,18.80
2018-12-16T10:13:37.364Z,13.00
2018-12-16T10:14:37.354Z,9.90
2018-12-16T10:15:37.347Z,12.50
2018-12-16T10:16:37.335Z,17.60
2018-12-16T10:17:37.324Z,15.20
2018-12-16T10:18:37.315Z,16.50
2018-12-16T10:19:37.361Z,15.60
2018-12-16T10:20:37.295Z,16.30
2018-12-16T10:21:37.285Z,13.60
2018-12-16T10:22:37.277Z,18.70
2018-12-16T10:23:37.267Z,26.80
2018-12-16T10:24:37.257Z,18.00
2018-12-16T10:25:37.246Z,10.00
2018-12-16T10:26:37.237Z,17.60
2018-12-16T10:27:37.228Z,14.20
2018-12-16T10:28:37.217Z,16.90
2018-12-16T10:29:37.208Z,15.20
2018-12-16T10:30:37.198Z,15.10
2018-12-16T10:31:37.189Z,11.80
2018-12-16T10:32:37.181Z,14.30
2018-12-16T10:33:37.168Z,16.70
2018-12-16T10:34:37.158Z,14.70
2018-12-16T10:35:37.150Z,17.70
2018-12-16T10:36:37.140Z,15.00
2018-12-16T10:37:37.131Z,16.80
2018-12-16T10:38:37.121Z,12.80
2018-12-16T10:39:37.111Z,19.00
2018-12-16T10:40:37.101Z,20.30
2018-12-16T10:41:37.092Z,18.00
2018-12-16T10:42:37.083Z,19.20
2018-12-16T10:43:37.072Z,18.20
2018-12-16T10:44:37.062Z,13.80
2018-12-16T10:45:37.053Z,17.80
2018-12-16T10:46:37.042Z,11.30
2018-12-16T10:47:37.033Z,16.10
2018-12-16T10:48:37.023Z,15.40
2018-12-16T10:49:37.019Z,17.70
2018-12-16T10:50:37.004Z,12.80
2018-12-16T10:51:36.995Z,17.10
2018-12-16T10:52:36.984Z,16.60
2018-12-16T10:53:36.975Z,17.70
2018-12-16T10:54:36.967Z,17.90
2018-12-16T10:55:36.957Z,15.30
2018-12-16T10:56:36.945Z,11.40
2018-12-16T10:57:36.936Z,17.50
2018-12-16T10:58:36.929Z,14.80
2018-12-16T10:59:36.919Z,18.80
2018-12-16T11:00:36.906Z,12.60
2018-12-16T11:01:36.897Z,14.30
2018-12-16T11:02:36.889Z,19.80
2018-12-16T11:03:36.878Z,16.90
2018-12-16T11:04:36.869Z,14.30
2018-12-16T11:05:36.860Z,17.10
2018-12-16T11:06:36.851Z,16.90
2018-12-16T11:07:36.840Z,25.40
2018-12-16T11:08:36.831Z,17.50
2018-12-16T11:09:36.820Z,18.40
2018-12-16T11:10:36.816Z,19.80
2018-12-16T11:11:36.804Z,18.20
2018-12-16T11:12:36.793Z,22.40
2018-12-16T11:13:36.785Z,19.90
2018-12-16T11:14:36.777Z,19.20
2018-12-16T11:15:36.764Z,16.60
2018-12-16T11:16:36.756Z,16.50
2018-12-16T11:17:36.746Z,17.40
2018-12-16T11:18:36.735Z,18.70
2018-12-16T11:19:36.729Z,21.80
2018-12-16T11:20:36.719Z,16.00
2018-12-16T11:21:36.707Z,19.00
2018-12-16T11:22:36.697Z,22.40
2018-12-16T11:23:36.690Z,22.90
2018-12-16T11:24:36.678Z,15.70
2018-12-16T11:25:36.670Z,20.20
2018-12-16T11:26:36.660Z,23.80
2018-12-16T11:27:36.653Z,17.90
2018-12-16T11:28:36.641Z,21.40
2018-12-16T11:29:36.934Z,21.50
2018-12-16T11:30:36.624Z,16.60
2018-12-16T11:31:36.616Z,19.40
2018-12-16T11:32:36.635Z,21.60
2018-12-16T11:33:36.595Z,23.00
2018-12-16T11:34:36.588Z,24.60
2018-12-16T11:35:36.576Z,21.90
2018-12-16T11:36:36.567Z,21.50
2018-12-16T11:37:36.559Z,17.80
2018-12-16T11:38:36.550Z,28.50
2018-12-16T11:39:36.540Z,24.40
2018-12-16T11:40:36.529Z,21.50
2018-12-16T11:41:36.520Z,22.30
2018-12-16T11:42:36.512Z,23.20
2018-12-16T11:43:36.502Z,18.40
2018-12-16T11:44:36.494Z,18.40
2018-12-16T11:45:36.484Z,20.60
2018-12-16T11:46:36.473Z,16.00
2018-12-16T11:47:36.466Z,16.50
2018-12-16T11:48:36.455Z,19.70
2018-12-16T11:49:36.446Z,23.60
2018-12-16T11:50:36.438Z,16.60
2018-12-16T11:51:36.433Z,15.60
2018-12-16T11:52:36.418Z,17.20
2018-12-16T11:53:36.408Z,13.10
2018-12-16T11:54:36.400Z,15.60
2018-12-16T11:55:36.390Z,16.70
2018-12-16T11:56:36.381Z,19.50
2018-12-16T11:57:36.372Z,16.80
2018-12-16T11:58:36.365Z,12.60
2018-12-16T11:59:36.354Z,19.30
2018-12-16T12:00:36.344Z,18.70
2018-12-16T12:01:36.334Z,11.40
2018-12-16T12:02:36.327Z,12.80
2018-12-16T12:03:36.317Z,21.00
2018-12-16T12:04:36.308Z,12.50
2018-12-16T12:05:36.298Z,15.30
2018-12-16T12:06:36.290Z,18.90
2018-12-16T12:07:36.281Z,13.30
2018-12-16T12:08:36.270Z,17.80
2018-12-16T12:09:36.261Z,14.60
2018-12-16T12:10:36.252Z,17.00
2018-12-16T12:11:36.244Z,21.10
2018-12-16T12:12:36.234Z,20.20
2018-12-16T12:13:36.227Z,14.20
2018-12-16T12:14:36.221Z,19.90
2018-12-16T12:15:36.208Z,19.40
2018-12-16T12:16:36.198Z,20.30
2018-12-16T12:17:36.188Z,16.00
2018-12-16T12:18:36.182Z,17.50
2018-12-16T12:19:36.173Z,16.60
2018-12-16T12:20:36.162Z,17.70
2018-12-16T12:21:36.152Z,22.00
2018-12-16T12:22:36.144Z,22.60
2018-12-16T12:23:36.135Z,16.30
2018-12-16T12:24:36.126Z,16.70
2018-12-16T12:25:36.116Z,19.10
2018-12-16T12:26:36.108Z,20.20
2018-12-16T12:27:36.102Z,18.10
2018-12-16T12:28:36.090Z,17.10
2018-12-16T12:29:36.081Z,16.60
2018-12-16T12:30:36.072Z,20.00
2018-12-16T12:31:36.063Z,17.70
2018-12-16T12:32:36.053Z,20.10
2018-12-16T12:33:36.047Z,17.40
2018-12-16T12:34:36.037Z,19.90
2018-12-16T12:35:36.033Z,17.40
2018-12-16T12:36:36.019Z,19.40
2018-12-16T12:37:36.010Z,18.30
2018-12-16T12:38:36.001Z,16.70
2018-12-16T12:39:35.991Z,23.10
2018-12-16T12:40:35.986Z,18.60
2018-12-16T12:41:35.975Z,18.80
2018-12-16T12:42:35.966Z,18.60
2018-12-16T12:43:35.958Z,23.70
2018-12-16T12:44:35.948Z,22.40
2018-12-16T12:45:35.938Z,18.30
2018-12-16T12:46:35.929Z,23.60
2018-12-16T12:47:35.921Z,25.30
2018-12-16T12:48:35.912Z,18.30
2018-12-16T12:49:35.904Z,15.60
2018-12-16T12:50:35.895Z,21.10
2018-12-16T12:51:35.887Z,21.20
2018-12-16T12:52:35.878Z,19.90
2018-12-16T12:53:35.868Z,16.90
2018-12-16T12:54:35.861Z,21.50
2018-12-16T12:55:35.851Z,19.60
2018-12-16T12:56:35.847Z,23.60
2018-12-16T12:57:35.836Z,21.60
2018-12-16T12:58:35.824Z,25.10
2018-12-16T12:59:35.817Z,21.30
2018-12-16T13:00:35.806Z,23.50
2018-12-16T13:01:35.798Z,19.70
2018-12-16T13:02:35.790Z,18.40
2018-12-16T13:03:35.784Z,20.10
2018-12-16T13:04:35.771Z,26.40
2018-12-16T13:05:37.048Z,17.00